Airfield :
LOGIN :

Register | Disclaimer

   EN    FR    IT 

 










Legend :    VFR   Marginal VFR   IFR   Intensive IFR   Very Intensive IFR
Visi :
Ceiling :
>= 8 km
>= 3000ft
5 to 8 km
1000 to 3000 ft
1500m to 5 km
500 to 1000 ft
800 to 1500m
200 to 500 ft
< 800m
< 200 ft
Symbols :   Thunderstorms  Fog  Heavy snow  Heavy precipitations  Wind > 20 kt
SIGMETs :     Misc.  Thunderstorms  Icing  Turbulence  Mountain Waves  Volcanic Ashes






- Airport Elevation : 102 ft
- IATA code : EXT


EGTE - Exeter

CURRENT METAR :
  • 151250Z 21015KT 9999 VCSH FEW030 10/05 Q0996

EXPIRED METARs :
  • 151220Z 21018KT 9999 VCSH FEW030 FEW050CB 09/04 Q0996
  • 151150Z 22016KT 9999 FEW030 10/05 Q0996
  • 151120Z 23015KT 9999 FEW040 09/03 Q0996
  • 151050Z 22013KT 190V260 9999 FEW040CB 09/03 Q0996
  • 151020Z 23010KT 200V260 9999 FEW040 09/04 Q0996
  • 150950Z 22011KT 9999 FEW030 FEW045CB 08/04 Q0996

TAF TAF EGTE
Valid from the 15 at 12:00 until the 15 at 21:00 UTC


151055Z 1512/1521 22009KT 9999 SCT030
TEMPO 1512/1521 24015G25KT 6000 SHRA BKN014



MET'MAP, your aeronautical weather chart ! - Copyright ORBIFLY December 2007 - Disclaimer

ORBIFLY MET'MAP TEAM :

Programming & Development : Alexandra Zaïnal
Concept & original design : Baudouin d'Aumeries
Assistance for programming : Marc-Olivier Méhu
Technical & hardware support : Manuel Goepfert

Contact : metmap@orbifly.com




SOURCES & CREDITS :

   NOAA